createdAt,value
2022-12-29T00:01:54.981Z,93617.54
2022-12-29T00:07:02.177Z,93608.23
2022-12-29T00:12:09.009Z,93607.38
2022-12-29T00:17:16.323Z,93619.00
2022-12-29T00:22:42.617Z,93615.22
2022-12-29T00:28:07.764Z,93613.84
2022-12-29T00:33:35.954Z,93599.09
2022-12-29T00:39:04.037Z,93599.83
2022-12-29T00:44:13.254Z,93595.11
2022-12-29T00:49:32.604Z,93591.24
2022-12-29T00:54:42.343Z,93590.09
2022-12-29T00:59:49.401Z,93591.23
2022-12-29T01:04:56.591Z,93586.53
2022-12-29T01:10:12.952Z,93589.50
2022-12-29T01:15:20.344Z,93598.53
2022-12-29T01:20:29.194Z,93595.19
2022-12-29T01:25:36.277Z,93598.52
2022-12-29T01:30:43.214Z,93606.07
2022-12-29T01:35:50.160Z,93599.27
2022-12-29T01:40:56.988Z,93598.06
2022-12-29T01:46:04.283Z,93584.75
2022-12-29T01:51:11.371Z,93582.70
2022-12-29T01:56:21.962Z,93582.13
2022-12-29T02:01:29.076Z,93578.13
2022-12-29T02:06:49.727Z,93571.70
2022-12-29T02:11:57.500Z,93557.52
2022-12-29T02:17:23.797Z,93549.08
2022-12-29T02:23:24.393Z,93545.84
2022-12-29T02:29:03.988Z,93543.73
2022-12-29T02:34:39.220Z,93539.00
2022-12-29T02:40:11.591Z,93526.12
2022-12-29T02:45:46.623Z,93521.81
2022-12-29T02:51:30.097Z,93526.94
2022-12-29T02:56:36.817Z,93527.95
2022-12-29T03:02:22.036Z,93524.06
2022-12-29T03:07:33.511Z,93524.75
2022-12-29T03:13:21.110Z,93522.06
2022-12-29T03:18:32.279Z,93517.95
2022-12-29T03:23:40.439Z,93520.23
2022-12-29T03:28:53.414Z,93523.95
2022-12-29T03:34:00.923Z,93514.56
2022-12-29T03:39:14.240Z,93518.21
2022-12-29T03:44:21.013Z,93517.56
2022-12-29T03:49:27.703Z,93515.10
2022-12-29T03:54:34.709Z,93517.97
2022-12-29T03:59:41.364Z,93521.84
2022-12-29T04:04:48.052Z,93520.09
2022-12-29T04:09:55.525Z,93519.58
2022-12-29T04:15:02.202Z,93510.87
2022-12-29T04:20:27.383Z,93525.23
2022-12-29T04:25:35.161Z,93519.41
2022-12-29T04:30:41.841Z,93516.56
2022-12-29T04:35:49.022Z,93510.50
2022-12-29T04:40:55.798Z,93512.11
2022-12-29T04:46:02.589Z,93507.15
2022-12-29T04:51:09.347Z,93497.52
2022-12-29T04:56:16.028Z,93509.55
2022-12-29T05:01:22.749Z,93511.54
2022-12-29T05:06:29.465Z,93517.16
2022-12-29T05:11:36.112Z,93511.09
2022-12-29T05:16:42.896Z,93515.78
2022-12-29T05:21:49.557Z,93517.61
2022-12-29T05:26:56.252Z,93533.25
2022-12-29T05:32:02.968Z,93527.50
2022-12-29T05:37:09.715Z,93531.06
2022-12-29T05:42:16.400Z,93534.42
2022-12-29T05:47:23.979Z,93532.67
2022-12-29T05:52:30.681Z,93536.81
2022-12-29T05:57:37.327Z,93544.07
2022-12-29T06:02:44.188Z,93542.25
2022-12-29T06:07:51.020Z,93552.34
2022-12-29T06:12:58.009Z,93554.44
2022-12-29T06:18:04.896Z,93550.29
2022-12-29T06:23:13.216Z,93557.33
2022-12-29T06:28:20.920Z,93548.44
2022-12-29T06:33:27.585Z,93561.90
2022-12-29T06:38:34.409Z,93564.67
2022-12-29T06:43:41.118Z,93570.34
2022-12-29T06:48:47.776Z,93576.14
2022-12-29T06:53:54.442Z,93572.12
2022-12-29T06:59:04.507Z,93578.74
2022-12-29T07:04:11.179Z,93580.74
2022-12-29T07:09:17.978Z,93418.00
2022-12-29T07:14:24.678Z,93581.42
2022-12-29T07:19:31.369Z,93588.89
2022-12-29T07:24:38.043Z,93584.28
2022-12-29T07:29:44.771Z,93593.42
2022-12-29T07:34:51.451Z,93591.13
2022-12-29T07:39:58.477Z,93586.19
2022-12-29T07:45:05.591Z,93584.14
2022-12-29T07:50:13.127Z,93588.84
2022-12-29T07:55:19.983Z,93597.42
2022-12-29T08:00:26.771Z,93592.34
2022-12-29T08:05:35.271Z,93596.78
2022-12-29T08:10:41.997Z,93598.93
2022-12-29T08:15:48.755Z,93600.52
2022-12-29T08:20:56.033Z,93599.28
2022-12-29T08:26:05.756Z,93606.14
2022-12-29T08:31:12.986Z,93602.59
2022-12-29T08:36:19.673Z,93602.04
2022-12-29T08:41:26.788Z,93600.20
2022-12-29T08:46:33.598Z,93600.16
2022-12-29T08:51:40.315Z,93604.98
2022-12-29T08:56:47.004Z,93604.89
2022-12-29T09:01:53.782Z,93618.82
2022-12-29T09:07:00.576Z,93617.96
2022-12-29T09:12:07.260Z,93622.05
2022-12-29T09:17:31.977Z,93621.66
2022-12-29T09:22:39.555Z,93621.98
2022-12-29T09:27:46.290Z,93618.23
2022-12-29T09:32:55.380Z,93618.59
2022-12-29T09:38:01.496Z,93622.16
2022-12-29T09:43:29.555Z,93626.53
2022-12-29T09:48:40.266Z,93616.30
2022-12-29T09:53:51.437Z,93606.22
2022-12-29T09:59:08.657Z,93590.84
2022-12-29T10:04:15.408Z,93590.23
2022-12-29T10:09:55.017Z,93575.68
2022-12-29T10:15:42.316Z,93571.42
2022-12-29T10:21:32.542Z,93570.52
2022-12-29T10:26:45.612Z,93561.48
2022-12-29T10:32:02.237Z,93567.33
2022-12-29T10:37:38.593Z,93574.27
2022-12-29T10:42:48.928Z,93565.92
2022-12-29T10:48:08.990Z,93554.57
2022-12-29T10:53:20.179Z,93565.47
2022-12-29T10:58:28.801Z,93554.04
2022-12-29T11:03:48.912Z,93551.24
2022-12-29T11:09:20.579Z,93552.14
2022-12-29T11:14:33.190Z,93551.19
2022-12-29T11:19:41.289Z,93541.63
2022-12-29T11:24:49.641Z,93540.63
2022-12-29T11:29:57.125Z,93535.75
2022-12-29T11:35:04.277Z,93525.45
2022-12-29T11:40:23.133Z,93534.58
2022-12-29T11:45:36.483Z,93528.05
2022-12-29T11:50:45.344Z,93537.27
2022-12-29T11:55:58.819Z,93524.16
2022-12-29T12:01:39.095Z,93518.86
2022-12-29T12:07:05.617Z,93523.96
2022-12-29T12:12:27.998Z,93514.27
2022-12-29T12:17:54.440Z,93510.14
2022-12-29T12:23:20.855Z,93509.52
2022-12-29T12:28:36.918Z,93500.41
2022-12-29T12:33:47.335Z,93497.28
2022-12-29T12:39:22.390Z,93498.87
2022-12-29T12:44:50.022Z,93495.30
2022-12-29T12:50:41.472Z,93497.30
2022-12-29T12:56:13.158Z,93494.50
2022-12-29T13:01:41.636Z,93506.96
2022-12-29T13:06:55.741Z,93501.79
2022-12-29T13:12:28.959Z,93491.66
2022-12-29T13:17:51.963Z,93494.92
2022-12-29T13:23:19.654Z,93503.10
2022-12-29T13:29:03.817Z,93493.00
2022-12-29T13:34:20.501Z,93491.49
2022-12-29T13:39:34.514Z,93494.05
2022-12-29T13:44:45.589Z,93496.53
2022-12-29T13:49:53.164Z,93503.91
2022-12-29T13:55:09.821Z,93499.78
2022-12-29T14:00:24.471Z,93501.27
2022-12-29T14:05:33.647Z,93497.87
2022-12-29T14:10:53.580Z,93501.70
2022-12-29T14:16:02.941Z,93506.66
2022-12-29T14:21:19.636Z,93510.25
2022-12-29T14:26:38.067Z,93514.30
2022-12-29T14:31:44.891Z,93515.88
2022-12-29T14:36:59.860Z,93517.59
2022-12-29T14:42:15.107Z,93513.19
2022-12-29T14:47:32.067Z,93514.15
2022-12-29T14:52:56.638Z,93514.83
2022-12-29T14:58:11.985Z,93512.17
2022-12-29T15:03:35.822Z,93513.67
2022-12-29T15:08:49.401Z,93522.27
2022-12-29T15:13:56.077Z,93538.58
2022-12-29T15:19:03.302Z,93540.27
2022-12-29T15:24:11.669Z,93544.52
2022-12-29T15:29:42.378Z,93546.93
2022-12-29T15:34:52.991Z,93547.42
2022-12-29T15:40:01.522Z,93545.18
2022-12-29T15:45:13.288Z,93545.83
2022-12-29T15:50:27.289Z,93542.17
2022-12-29T15:55:40.689Z,93545.97
2022-12-29T16:00:51.259Z,93545.77
2022-12-29T16:06:02.461Z,93544.01
2022-12-29T16:11:31.715Z,93546.53
2022-12-29T16:16:44.416Z,93548.89
2022-12-29T16:21:51.639Z,93570.69
2022-12-29T16:27:11.381Z,93558.66
2022-12-29T16:32:33.386Z,93563.62
2022-12-29T16:37:40.881Z,93564.47
2022-12-29T16:42:52.198Z,93557.91
2022-12-29T16:48:11.795Z,93550.47
2022-12-29T16:53:34.932Z,93550.62
2022-12-29T16:58:46.442Z,93546.63
2022-12-29T17:04:03.279Z,93546.60
2022-12-29T17:09:28.641Z,93547.74
2022-12-29T17:14:57.669Z,93536.67
2022-12-29T17:20:26.945Z,93527.50
2022-12-29T17:25:38.369Z,93523.45
2022-12-29T17:30:45.249Z,93516.42
2022-12-29T17:35:55.653Z,93522.64
2022-12-29T17:41:01.737Z,93524.55
2022-12-29T17:46:09.869Z,93535.99
2022-12-29T17:51:16.640Z,93543.21
2022-12-29T17:56:23.318Z,93538.72
2022-12-29T18:01:36.161Z,93531.88
2022-12-29T18:06:40.498Z,93529.59
2022-12-29T18:11:47.840Z,93532.23
2022-12-29T18:16:54.658Z,93533.89
2022-12-29T18:22:02.324Z,93536.05
2022-12-29T18:27:15.967Z,93535.36
2022-12-29T18:32:23.071Z,93536.66
2022-12-29T18:37:29.762Z,93535.79
2022-12-29T18:42:36.933Z,93535.63
2022-12-29T18:47:43.728Z,93531.09
2022-12-29T18:52:50.552Z,93530.84
2022-12-29T18:57:57.517Z,93523.95
2022-12-29T19:03:04.469Z,93536.89
2022-12-29T19:08:12.867Z,93525.33
2022-12-29T19:13:24.268Z,93526.94
2022-12-29T19:18:53.239Z,93522.52
2022-12-29T19:23:39.845Z,93522.80
2022-12-29T19:28:46.739Z,93519.16
2022-12-29T19:33:54.096Z,93501.20
2022-12-29T19:39:01.336Z,93509.88
2022-12-29T19:44:09.310Z,93505.58
2022-12-29T19:49:16.667Z,93503.03
2022-12-29T19:54:23.375Z,93505.91
2022-12-29T19:59:31.026Z,93509.12
2022-12-29T20:04:37.780Z,93505.31
2022-12-29T20:09:44.789Z,93501.84
2022-12-29T20:14:52.240Z,93515.63
2022-12-29T20:19:59.051Z,93506.91
2022-12-29T20:25:43.061Z,93512.72
2022-12-29T20:30:14.833Z,93521.44
2022-12-29T20:35:22.110Z,93538.03
2022-12-29T20:40:29.404Z,93510.70
2022-12-29T20:45:37.236Z,93504.87
2022-12-29T20:50:44.149Z,93494.55
2022-12-29T20:55:51.473Z,93493.33
2022-12-29T21:01:01.613Z,93490.22
2022-12-29T21:06:11.085Z,93481.94
2022-12-29T21:11:18.816Z,93474.78
2022-12-29T21:16:25.731Z,93475.41
2022-12-29T21:21:32.607Z,93473.55
2022-12-29T21:26:39.395Z,93467.13
2022-12-29T21:31:46.320Z,93468.52
2022-12-29T21:36:53.154Z,93460.45
2022-12-29T21:42:00.763Z,93450.55
2022-12-29T21:47:07.547Z,93454.23
2022-12-29T21:52:14.594Z,93441.87
2022-12-29T21:57:39.485Z,93434.49
2022-12-29T22:03:04.033Z,93422.90
2022-12-29T22:08:28.641Z,93415.00
2022-12-29T22:13:37.440Z,93411.47
2022-12-29T22:18:44.270Z,93412.19
2022-12-29T22:23:50.895Z,93414.98
2022-12-29T22:28:57.791Z,93408.14
2022-12-29T22:34:06.284Z,93416.66
2022-12-29T22:39:13.020Z,93412.62
2022-12-29T22:44:19.797Z,93416.45
2022-12-29T22:49:30.614Z,93417.49
2022-12-29T22:54:37.717Z,93420.45
2022-12-29T22:59:44.504Z,93423.23
2022-12-29T23:05:06.748Z,93407.55
2022-12-29T23:09:59.797Z,93410.13
2022-12-29T23:15:07.270Z,93407.49
2022-12-29T23:20:15.541Z,93396.37
2022-12-29T23:25:22.405Z,93395.46
2022-12-29T23:30:29.359Z,93390.39
2022-12-29T23:35:36.057Z,93390.42
2022-12-29T23:40:43.616Z,93384.01
2022-12-29T23:45:51.385Z,93376.90
2022-12-29T23:50:58.570Z,93369.39
2022-12-29T23:56:06.605Z,93373.50
